Time;durP1;ratioP1;P1;durP2;ratioP2;P2;SDS_P1;SDS_P2;PMS_P1;PMS_P2;Temp;Humidity;BMP_temperature;BMP_pressure;BME280_temperature;BME280_humidity;BME280_pressure;Samples;Min_cycle;Max_cycle;Signal;HPM_P1;HPM_P2
2022/05/07 00:00:54;;;;;;;5.03;4.50;;;12.40;99.90;;;;;;5026527;28;20470;-81
2022/05/07 00:03:23;;;;;;;5.60;4.68;;;12.40;99.90;;;;;;5036382;28;20375;-82
2022/05/07 00:06:18;;;;;;;5.33;4.60;;;12.30;99.90;;;;;;5036552;28;20414;-82
2022/05/07 00:08:57;;;;;;;4.53;4.13;;;12.20;99.90;;;;;;5036047;28;20463;-81
2022/05/07 00:11:48;;;;;;;4.63;4.23;;;12.20;99.90;;;;;;5036270;28;20444;-83
2022/05/07 00:14:39;;;;;;;6.28;4.72;;;12.10;99.90;;;;;;5037913;28;20385;-82
2022/05/07 00:23:12;;;;;;;5.00;4.50;;;12.00;99.90;;;;;;5054211;28;20842;-80
2022/05/07 00:25:47;;;;;;;6.93;4.88;;;11.90;99.90;;;;;;5055919;28;20398;-82
2022/05/07 00:28:42;;;;;;;5.47;4.72;;;11.90;99.90;;;;;;5036594;28;20395;-81
2022/05/07 00:31:07;;;;;;;5.05;4.30;;;11.90;99.90;;;;;;5027494;28;20406;-80
2022/05/07 00:34:00;;;;;;;5.32;4.38;;;11.90;99.90;;;;;;5055775;28;20380;-82
2022/05/07 00:36:26;;;;;;;4.65;4.22;;;11.90;99.90;;;;;;5036440;28;20933;-84
2022/05/07 00:38:54;;;;;;;6.50;4.60;;;11.90;99.90;;;;;;5054439;28;20482;-81
2022/05/07 00:41:20;;;;;;;5.70;4.60;;;12.00;99.90;;;;;;5054619;28;20421;-82
2022/05/07 00:43:48;;;;;;;4.87;4.20;;;12.00;99.90;;;;;;5053842;28;20652;-82
2022/05/07 00:46:22;;;;;;;5.78;4.80;;;12.00;99.90;;;;;;5034783;28;20396;-81
2022/05/07 00:48:48;;;;;;;6.10;4.35;;;12.10;99.90;;;;;;5052083;28;20371;-82
2022/05/07 00:54:06;;;;;;;7.43;4.43;;;12.10;99.90;;;;;;5052902;28;20381;-82
2022/05/07 00:56:37;;;;;;;4.55;4.15;;;12.20;99.90;;;;;;5034475;28;20379;-81
2022/05/07 00:59:04;;;;;;;6.37;4.80;;;12.20;99.90;;;;;;5051911;28;20806;-82
2022/05/07 01:01:30;;;;;;;5.10;4.60;;;12.20;99.90;;;;;;5034260;28;20387;-82
2022/05/07 01:03:56;;;;;;;5.90;4.80;;;12.20;99.90;;;;;;5034770;28;20456;-83
2022/05/07 01:06:24;;;;;;;4.70;4.30;;;12.30;99.90;;;;;;5052733;28;20371;-82
2022/05/07 01:08:56;;;;;;;4.70;4.15;;;12.30;99.90;;;;;;5034979;28;20391;-82
2022/05/07 01:11:31;;;;;;;11.90;4.95;;;12.40;99.90;;;;;;5053403;28;20371;-82
2022/05/07 01:14:25;;;;;;;5.47;4.82;;;12.40;99.90;;;;;;5034752;28;20372;-82
2022/05/07 01:16:59;;;;;;;6.38;5.35;;;12.40;99.90;;;;;;5030874;28;20395;-83
2022/05/07 01:20:06;;;;;;;5.30;4.80;;;12.40;99.90;;;;;;5052037;28;20445;-82
2022/05/07 01:22:47;;;;;;;5.13;4.63;;;12.40;99.90;;;;;;5034174;28;20379;-82
2022/05/07 01:25:35;;;;;;;5.18;4.68;;;12.50;99.90;;;;;;5035231;28;20738;-83
2022/05/07 01:28:16;;;;;;;4.90;4.50;;;12.50;99.90;;;;;;5051247;28;20388;-81
2022/05/07 01:30:42;;;;;;;7.20;5.05;;;12.60;99.90;;;;;;5034007;28;20376;-82
2022/05/07 01:33:30;;;;;;;5.00;4.60;;;12.70;99.90;;;;;;4905793;28;3674762;-81
2022/05/07 01:36:18;;;;;;;6.15;4.93;;;12.80;99.90;;;;;;5034679;28;20908;-82
2022/05/07 01:38:49;;;;;;;6.05;5.07;;;12.80;99.90;;;;;;5035914;28;20395;-82
2022/05/07 01:51:18;;;;;;;8.75;5.97;;;12.60;99.90;;;;;;5052441;28;20375;-83
2022/05/07 01:54:26;;;;;;;6.22;5.32;;;12.60;99.90;;;;;;4935959;29;20392;-83
2022/05/07 01:56:57;;;;;;;6.35;5.75;;;12.60;99.90;;;;;;4952184;29;20389;-81
2022/05/07 01:59:28;;;;;;;6.82;5.90;;;12.60;99.90;;;;;;5024831;28;20376;-82
2022/05/07 02:02:14;;;;;;;6.05;5.28;;;12.60;99.90;;;;;;5035141;28;20740;-82
2022/05/07 02:04:50;;;;;;;8.10;5.90;;;12.60;99.90;;;;;;5034579;28;20372;-82
2022/05/07 02:07:27;;;;;;;8.98;6.28;;;12.60;99.90;;;;;;5034981;28;20384;-83
2022/05/07 02:14:16;;;;;;;7.00;6.32;;;12.90;99.90;;;;;;4953484;29;20383;-84
2022/05/07 02:17:58;;;;;;;;;;;;;;;;;;;;;
2022/05/07 02:31:42;;;;;;;;;;;;;;;;;;;;;
2022/05/07 02:44:21;;;;;;;7.07;6.30;;;12.50;99.90;;;;;;4991396;28;20444;-82
2022/05/07 02:46:57;;;;;;;6.45;5.85;;;12.50;99.90;;;;;;5034199;28;20384;-80
2022/05/07 02:50:06;;;;;;;;;;;;;;;;;;;;;
2022/05/07 02:53:26;;;;;;;6.65;5.53;;;12.30;99.90;;;;;;5046074;28;20917;-80
2022/05/07 02:59:26;;;;;;;7.00;6.30;;;12.10;99.90;;;;;;5035466;28;20380;-82
2022/05/07 03:01:55;;;;;;;6.75;6.05;;;11.90;99.90;;;;;;5036379;28;20471;-80
2022/05/07 03:07:53;;;;;;;7.50;6.80;;;11.70;99.90;;;;;;5052094;28;20366;-80
2022/05/07 03:10:19;;;;;;;7.22;6.53;;;11.50;99.90;;;;;;5035435;28;20433;-82
2022/05/07 03:12:47;;;;;;;8.57;6.80;;;11.40;99.90;;;;;;5051628;28;20376;-82
2022/05/07 03:15:13;;;;;;;8.10;7.30;;;11.30;99.90;;;;;;5052565;28;20391;-82
2022/05/07 03:17:46;;;;;;;7.60;6.90;;;11.20;99.90;;;;;;5052951;28;20446;-80
2022/05/07 03:20:24;;;;;;;8.45;7.18;;;11.10;99.90;;;;;;5033131;28;20368;-83
2022/05/07 03:22:52;;;;;;;7.32;6.63;;;11.00;99.90;;;;;;5035188;28;20368;-84
2022/05/07 03:25:20;;;;;;;7.43;6.72;;;11.00;99.90;;;;;;5050585;28;20364;-82
2022/05/07 03:27:49;;;;;;;7.70;6.90;;;10.90;99.90;;;;;;5032777;28;20419;-82
2022/05/07 03:30:15;;;;;;;8.43;7.23;;;10.90;99.90;;;;;;5050735;28;20445;-82
2022/05/07 03:32:40;;;;;;;8.10;7.30;;;10.80;99.90;;;;;;5032205;28;20861;-82
2022/05/07 03:35:06;;;;;;;7.65;6.75;;;10.80;99.90;;;;;;5051095;28;20372;-83
2022/05/07 03:37:39;;;;;;;8.23;7.40;;;10.70;99.90;;;;;;5051824;28;20430;-80
2022/05/07 03:40:05;;;;;;;7.93;7.22;;;10.60;99.90;;;;;;5033071;28;20391;-83
2022/05/07 03:42:36;;;;;;;8.55;7.15;;;10.60;99.90;;;;;;5051819;28;20372;-80
2022/05/07 03:45:08;;;;;;;7.25;6.55;;;10.60;99.90;;;;;;5032967;28;20367;-81
2022/05/07 03:47:37;;;;;;;8.05;7.13;;;10.50;99.90;;;;;;5032671;28;20379;-81
2022/05/07 03:50:03;;;;;;;9.93;7.35;;;10.50;99.90;;;;;;5051888;28;20368;-81
2022/05/07 03:56:06;;;;;;;8.38;7.50;;;10.90;99.90;;;;;;5050995;28;20493;-82
2022/05/07 03:58:38;;;;;;;10.10;7.57;;;11.10;99.90;;;;;;5034575;28;20487;-83
2022/05/07 04:01:12;;;;;;;8.88;7.25;;;11.00;99.90;;;;;;5034703;28;20370;-81
2022/05/07 04:03:43;;;;;;;8.23;7.40;;;11.00;99.90;;;;;;5036240;28;20410;-82
2022/05/07 04:09:14;;;;;;;8.82;6.93;;;11.00;99.90;;;;;;5049583;28;20376;-83
2022/05/07 04:12:14;;;;;;;7.90;7.10;;;11.00;99.90;;;;;;5036197;28;21097;-83
2022/05/07 04:15:33;;;;;;;;;;;;;;;;;;;;;
2022/05/07 04:21:42;;;;;;;7.50;6.70;;;11.30;99.90;;;;;;5059341;28;20437;-82
2022/05/07 04:24:25;;;;;;;7.88;6.88;;;11.40;99.90;;;;;;5039659;28;20368;-81
2022/05/07 04:27:07;;;;;;;7.57;6.83;;;11.40;99.90;;;;;;5039448;28;20410;-82
2022/05/07 04:30:30;;;;;;;7.65;6.55;;;11.40;99.90;;;;;;5041112;28;20437;-81
2022/05/07 04:33:04;;;;;;;7.55;6.65;;;11.50;99.90;;;;;;4942736;29;20384;-82
2022/05/07 04:35:35;;;;;;;8.82;6.70;;;11.60;99.90;;;;;;4972296;28;20394;-82
2022/05/07 04:38:10;;;;;;;7.07;6.38;;;11.60;99.90;;;;;;5039966;28;21011;-80
2022/05/07 04:40:36;;;;;;;7.22;6.20;;;11.70;99.90;;;;;;5040975;28;20401;-82
2022/05/07 04:43:02;;;;;;;6.85;6.15;;;11.80;99.90;;;;;;5061466;28;20416;-82
2022/05/07 04:45:37;;;;;;;45.80;10.05;;;11.90;99.90;;;;;;5061760;28;20403;-81
2022/05/07 04:48:38;;;;;;;11.52;7.00;;;12.00;99.90;;;;;;5042964;28;20376;-82
2022/05/07 04:51:04;;;;;;;8.55;7.00;;;12.20;99.90;;;;;;5043216;28;20375;-81
2022/05/07 04:53:38;;;;;;;12.00;7.43;;;12.40;99.90;;;;;;5041647;28;20405;-81
2022/05/07 04:56:04;;;;;;;9.68;7.13;;;12.60;99.90;;;;;;5041221;28;20711;-82
2022/05/07 04:58:32;;;;;;;13.55;7.30;;;12.90;99.90;;;;;;5040688;28;20398;-83
2022/05/07 05:01:04;;;;;;;9.25;6.43;;;13.20;99.90;;;;;;5057589;28;20440;-82
2022/05/07 05:03:29;;;;;;;9.57;6.53;;;13.60;99.90;;;;;;5038396;28;20384;-83
2022/05/07 05:05:58;;;;;;;8.23;6.40;;;14.00;99.90;;;;;;5035701;28;20371;-82
2022/05/07 05:08:30;;;;;;;7.55;6.53;;;14.30;99.90;;;;;;5036194;28;20423;-83
2022/05/07 05:10:59;;;;;;;11.55;6.57;;;14.60;99.90;;;;;;5035913;28;20383;-81
2022/05/07 05:13:25;;;;;;;7.32;6.45;;;14.90;99.90;;;;;;5036955;28;20381;-83
2022/05/07 05:15:53;;;;;;;9.83;6.93;;;15.20;99.90;;;;;;5054842;28;20798;-81
2022/05/07 05:18:21;;;;;;;11.35;8.18;;;15.50;99.90;;;;;;5054544;28;20426;-83
2022/05/07 05:20:46;;;;;;;9.00;7.35;;;15.60;99.90;;;;;;5036781;28;20376;-81
2022/05/07 05:23:12;;;;;;;7.30;6.60;;;15.70;99.90;;;;;;5053502;28;20387;-81
2022/05/07 05:25:39;;;;;;;9.33;6.47;;;15.80;99.90;;;;;;5037331;28;20877;-81
2022/05/07 05:28:05;;;;;;;8.10;6.53;;;15.80;99.90;;;;;;5036971;28;20383;-81
2022/05/07 05:30:30;;;;;;;8.02;5.88;;;15.90;99.90;;;;;;5055846;28;20885;-80
2022/05/07 05:32:56;;;;;;;7.97;5.60;;;16.10;99.90;;;;;;5054488;28;20372;-84
2022/05/07 05:35:22;;;;;;;7.43;5.65;;;16.30;99.90;;;;;;5037005;28;20917;-82
2022/05/07 05:37:48;;;;;;;7.47;5.60;;;16.50;99.90;;;;;;5054137;28;20472;-81
2022/05/07 05:40:14;;;;;;;8.30;5.53;;;16.70;99.90;;;;;;5036932;28;20392;-81
2022/05/07 05:42:39;;;;;;;6.30;5.70;;;16.80;99.90;;;;;;5052913;28;20360;-81
2022/05/07 05:45:08;;;;;;;6.22;5.28;;;17.00;99.90;;;;;;5053530;28;20410;-81
2022/05/07 05:47:34;;;;;;;9.00;5.45;;;17.20;99.90;;;;;;5035870;28;20394;-83
2022/05/07 05:50:01;;;;;;;5.97;5.33;;;17.50;99.90;;;;;;5053390;28;20368;-81
2022/05/07 05:52:27;;;;;;;7.40;5.60;;;17.70;99.90;;;;;;5035966;28;20862;-83
2022/05/07 05:54:53;;;;;;;6.88;5.53;;;17.80;99.90;;;;;;5035719;28;20383;-81
2022/05/07 05:57:19;;;;;;;7.38;5.55;;;17.90;99.90;;;;;;5053334;28;20387;-81
2022/05/07 05:59:44;;;;;;;7.53;5.53;;;18.00;99.90;;;;;;5034225;28;20861;-83
2022/05/07 06:02:10;;;;;;;7.78;4.95;;;18.00;99.90;;;;;;5052414;28;20391;-80
2022/05/07 06:04:39;;;;;;;7.50;5.47;;;18.00;99.90;;;;;;5034868;28;20478;-83
2022/05/07 06:07:05;;;;;;;7.97;4.95;;;18.20;99.90;;;;;;5034264;28;20789;-82
2022/05/07 06:09:30;;;;;;;7.32;4.88;;;18.40;99.90;;;;;;5051970;28;20380;-82
2022/05/07 06:11:57;;;;;;;5.80;4.83;;;18.60;99.90;;;;;;5034334;28;20415;-83
2022/05/07 06:14:25;;;;;;;7.03;4.60;;;;;;;;;;5034345;28;20940;-84
2022/05/07 06:16:53;;;;;;;5.40;4.88;;;19.20;99.90;;;;;;5052980;28;20501;-84
2022/05/07 06:19:22;;;;;;;8.02;4.70;;;19.40;99.90;;;;;;5033678;28;20461;-84
2022/05/07 06:21:47;;;;;;;8.73;5.20;;;20.00;99.90;;;;;;5035560;28;20447;-83
2022/05/07 06:29:44;;;;;;;6.60;4.60;;;;;;;;;;5051932;28;20378;-86
2022/05/07 06:32:11;;;;;;;5.77;4.30;;;19.90;99.90;;;;;;5052514;28;20360;-84
2022/05/07 06:34:36;;;;;;;5.85;3.90;;;20.20;99.90;;;;;;5051686;28;20371;-83
2022/05/07 06:37:02;;;;;;;8.73;4.70;;;20.40;99.90;;;;;;5051363;28;20402;-83
2022/05/07 06:39:37;;;;;;;7.15;4.15;;;20.50;99.90;;;;;;5033059;28;20449;-83
2022/05/07 06:42:09;;;;;;;6.97;4.78;;;20.80;98.60;;;;;;5050980;28;20880;-83
2022/05/07 06:44:35;;;;;;;5.05;4.40;;;20.80;99.30;;;;;;5032764;28;20396;-83
2022/05/07 06:47:01;;;;;;;6.83;4.50;;;20.90;99.90;;;;;;5027556;28;20936;-83
2022/05/07 06:49:27;;;;;;;7.47;4.72;;;21.00;99.90;;;;;;5023328;28;20450;-84
2022/05/07 06:51:53;;;;;;;10.00;5.00;;;21.20;99.90;;;;;;5038988;28;20385;-83
2022/05/07 06:54:21;;;;;;;7.33;4.30;;;21.30;97.30;;;;;;5022661;28;20836;-81
2022/05/07 06:56:47;;;;;;;5.28;4.13;;;21.30;97.70;;;;;;5038738;28;20364;-83
2022/05/07 06:59:12;;;;;;;7.47;4.33;;;21.10;97.80;;;;;;5023041;28;20403;-83
2022/05/07 07:01:39;;;;;;;6.45;4.43;;;21.00;99.00;;;;;;5039179;28;20852;-83
2022/05/07 07:04:22;;;;;;;5.00;4.32;;;20.90;98.50;;;;;;5014487;28;20399;-84
2022/05/07 07:06:49;;;;;;;5.45;4.50;;;21.00;97.60;;;;;;5030254;28;20382;-81
2022/05/07 07:09:16;;;;;;;8.13;5.33;;;20.90;97.90;;;;;;5012515;28;20392;-84
2022/05/07 07:11:41;;;;;;;7.70;5.07;;;20.80;97.00;;;;;;5012612;28;20947;-83
2022/05/07 07:14:07;;;;;;;7.78;4.97;;;20.90;99.90;;;;;;5030724;28;20476;-83
2022/05/07 07:16:38;;;;;;;7.77;6.03;;;21.00;99.40;;;;;;5030597;28;20460;-83
2022/05/07 07:19:04;;;;;;;9.07;6.32;;;21.00;97.80;;;;;;5012799;28;20424;-83
2022/05/07 07:21:43;;;;;;;8.88;5.93;;;20.80;99.30;;;;;;5012572;28;20421;-84
2022/05/07 07:24:08;;;;;;;9.17;6.50;;;20.70;99.90;;;;;;5030308;28;20871;-83
2022/05/07 07:26:34;;;;;;;7.78;6.40;;;20.70;99.90;;;;;;5030172;28;20460;-83
2022/05/07 07:29:03;;;;;;;7.90;6.40;;;20.80;99.60;;;;;;5030486;28;20375;-84
2022/05/07 07:31:29;;;;;;;8.60;6.30;;;20.90;99.00;;;;;;5030256;28;20381;-83
2022/05/07 07:33:55;;;;;;;8.02;6.07;;;;;;;;;;5012858;28;20377;-82
2022/05/07 07:36:21;;;;;;;10.45;6.38;;;;;;;;;;5013428;28;20419;-86
2022/05/07 07:38:47;;;;;;;9.93;5.97;;;;;;;;;;5031775;28;20451;-82
2022/05/07 07:41:13;;;;;;;8.90;6.57;;;;;;;;;;5033400;28;20373;-83
2022/05/07 07:43:42;;;;;;;9.80;6.70;;;;;;;;;;5030545;28;20361;-82
2022/05/07 07:48:53;;;;;;;11.55;7.20;;;;;;;;;;5031665;28;20353;-84
2022/05/07 07:51:20;;;;;;;13.43;8.10;;;;;;;;;;5013042;28;20373;-83
2022/05/07 07:53:47;;;;;;;9.15;6.80;;;;;;;;;;5030234;28;20913;-84
2022/05/07 07:56:13;;;;;;;12.02;7.05;;;;;;;;;;5012876;28;20417;-83
2022/05/07 07:58:39;;;;;;;8.40;6.63;;;;;;;;;;5012720;28;20917;-83
2022/05/07 08:01:05;;;;;;;8.90;6.70;;;;;;;;;;5012599;28;20365;-84
2022/05/07 08:03:30;;;;;;;10.55;7.30;;;22.60;95.30;;;;;;5030137;28;20365;-81
2022/05/07 08:05:57;;;;;;;9.27;6.80;;;22.70;99.90;;;;;;5029522;28;20739;-83
2022/05/07 08:13:55;;;;;;;13.17;8.07;;;22.50;99.10;;;;;;5036258;28;20375;-83
2022/05/07 08:16:22;;;;;;;16.42;7.45;;;22.80;96.60;;;;;;5036792;28;20379;-86
2022/05/07 08:18:49;;;;;;;11.15;8.10;;;23.10;95.30;;;;;;5054383;28;20390;-84
2022/05/07 08:21:15;;;;;;;12.40;7.60;;;22.90;94.00;;;;;;5037398;28;20451;-83
2022/05/07 08:23:41;;;;;;;10.60;7.30;;;22.90;95.20;;;;;;5054980;28;20379;-83
2022/05/07 08:26:08;;;;;;;10.73;7.23;;;23.10;94.10;;;;;;5030563;28;20389;-83
2022/05/07 08:28:35;;;;;;;11.80;8.15;;;23.60;95.70;;;;;;5016409;28;20556;-84
2022/05/07 08:31:01;;;;;;;13.00;7.93;;;23.90;99.20;;;;;;5025543;28;20377;-83
2022/05/07 08:33:28;;;;;;;13.48;8.70;;;24.10;92.80;;;;;;5045727;28;20379;-84
2022/05/07 08:35:54;;;;;;;13.30;8.55;;;23.80;92.90;;;;;;5030791;28;20887;-83
2022/05/07 08:38:19;;;;;;;16.50;8.48;;;23.60;91.90;;;;;;5046137;28;20404;-83
2022/05/07 08:40:45;;;;;;;11.90;8.88;;;23.50;92.90;;;;;;5042560;28;20390;-83
2022/05/07 08:43:11;;;;;;;12.48;8.80;;;23.50;92.10;;;;;;5024721;28;20871;-84
2022/05/07 08:45:41;;;;;;;11.93;8.80;;;23.60;92.30;;;;;;5026110;28;20386;-84
2022/05/07 08:48:08;;;;;;;11.98;8.55;;;23.80;93.40;;;;;;5043691;28;20452;-84
2022/05/07 08:50:33;;;;;;;11.82;8.45;;;24.20;91.90;;;;;;5045468;28;20892;-84
2022/05/07 08:53:00;;;;;;;12.65;8.40;;;24.60;90.70;;;;;;5027736;28;20415;-84
2022/05/07 08:55:26;;;;;;;13.57;7.78;;;24.90;91.70;;;;;;5041568;28;20431;-84
2022/05/07 08:57:53;;;;;;;14.50;8.40;;;25.10;91.10;;;;;;5026624;28;20400;-84
2022/05/07 09:00:21;;;;;;;15.80;9.30;;;25.20;89.10;;;;;;5043730;28;20401;-85
2022/05/07 09:02:52;;;;;;;16.65;10.05;;;25.00;90.20;;;;;;5046556;28;20387;-83
2022/05/07 09:05:20;;;;;;;15.00;9.52;;;25.10;88.00;;;;;;5041110;28;20522;-82
2022/05/07 09:07:57;;;;;;;17.15;9.05;;;25.20;88.70;;;;;;5008100;28;20462;-86
2022/05/07 09:10:27;;;;;;;15.20;8.85;;;25.30;87.20;;;;;;5045161;28;20449;-83
2022/05/07 09:12:54;;;;;;;13.63;8.77;;;25.50;88.40;;;;;;5025274;28;20376;-82
2022/05/07 09:15:19;;;;;;;11.45;8.57;;;25.40;85.40;;;;;;5043485;28;20415;-83
2022/05/07 09:17:47;;;;;;;11.87;8.23;;;25.20;99.90;;;;;;5042962;28;20400;-83
2022/05/07 09:20:18;;;;;;;11.10;7.72;;;25.10;99.90;;;;;;5043076;28;20515;-82
2022/05/07 09:22:55;;;;;;;13.40;7.90;;;25.30;99.90;;;;;;5041355;28;20482;-84
2022/05/07 09:25:27;;;;;;;12.38;7.80;;;25.20;99.90;;;;;;5043286;28;20423;-82
2022/05/07 09:27:56;;;;;;;11.48;8.27;;;25.30;99.90;;;;;;5044001;28;20441;-83
2022/05/07 09:30:27;;;;;;;10.90;7.50;;;24.70;91.70;;;;;;5025510;28;20395;-81
2022/05/07 09:32:55;;;;;;;12.55;7.20;;;23.70;86.50;;;;;;5023812;28;20396;-82
2022/05/07 09:38:14;;;;;;;9.93;6.80;;;23.70;88.90;;;;;;5043528;28;20391;-82
2022/05/07 09:40:42;;;;;;;10.37;6.37;;;23.80;88.10;;;;;;5043072;28;20370;-83
2022/05/07 09:43:09;;;;;;;10.38;7.20;;;24.20;94.10;;;;;;5039897;28;21011;-82
2022/05/07 09:45:37;;;;;;;11.23;7.40;;;24.40;90.20;;;;;;5020807;28;20381;-81
2022/05/07 09:48:07;;;;;;;9.98;6.85;;;24.20;90.60;;;;;;5040065;28;20380;-83
2022/05/07 09:58:43;;;;;;;11.63;7.30;;;24.50;85.40;;;;;;5042079;28;20411;-81
2022/05/07 10:01:20;;;;;;;7.70;6.68;;;24.50;84.40;;;;;;5044196;28;20401;-82
2022/05/07 10:04:32;;;;;;;9.55;5.72;;;24.00;85.20;;;;;;5035948;28;20389;-83
2022/05/07 10:07:18;;;;;;;8.38;5.93;;;24.00;87.40;;;;;;5043838;28;20850;-82
2022/05/07 10:10:25;;;;;;;12.83;6.40;;;24.50;86.30;;;;;;5041448;28;20506;-82
2022/05/07 10:12:53;;;;;;;10.57;6.22;;;24.90;86.10;;;;;;5052781;28;20401;-80
2022/05/07 10:15:23;;;;;;;8.38;6.03;;;25.50;84.00;;;;;;5023356;28;20397;-83
2022/05/07 10:18:14;;;;;;;7.95;6.00;;;25.50;82.60;;;;;;5041037;28;20437;-81
2022/05/07 10:20:45;;;;;;;8.05;6.55;;;25.20;82.80;;;;;;5025938;28;20462;-82
2022/05/07 10:23:12;;;;;;;7.60;6.13;;;24.70;82.50;;;;;;5038324;28;20863;-83
2022/05/07 10:25:39;;;;;;;8.48;5.80;;;24.40;84.00;;;;;;5040617;28;20492;-82
2022/05/07 10:28:10;;;;;;;7.90;5.87;;;24.30;84.60;;;;;;5044157;28;20382;-81
2022/05/07 10:30:52;;;;;;;10.55;5.25;;;24.40;82.70;;;;;;5037221;28;20951;-82
2022/05/07 10:33:19;;;;;;;9.13;5.38;;;24.20;85.90;;;;;;5019013;28;20447;-82
2022/05/07 10:35:53;;;;;;;6.07;4.50;;;24.60;85.20;;;;;;5040916;28;20374;-81
2022/05/07 10:38:37;;;;;;;8.30;5.25;;;24.70;88.20;;;;;;5050907;28;20405;-85
2022/05/07 10:41:18;;;;;;;8.18;5.63;;;25.30;87.70;;;;;;5020943;28;20377;-82
2022/05/07 10:43:59;;;;;;;8.10;5.40;;;25.60;83.70;;;;;;5043952;28;20394;-83
2022/05/07 10:46:36;;;;;;;7.00;5.40;;;25.30;88.00;;;;;;5040794;28;20388;-85
2022/05/07 10:49:04;;;;;;;7.47;6.32;;;;;;;;;;5019139;28;20398;-82
2022/05/07 10:51:35;;;;;;;9.02;6.20;;;;;;;;;;5020770;28;20515;-86
2022/05/07 10:54:03;;;;;;;10.70;5.60;;;;;;;;;;5035493;28;20433;-83
2022/05/07 10:56:30;;;;;;;10.40;5.75;;;;;;;;;;5036704;28;20889;-83
2022/05/07 10:59:04;;;;;;;11.70;6.63;;;;;;;;;;5026234;28;20398;-83
2022/05/07 11:01:31;;;;;;;9.07;6.05;;;;;;;;;;5026209;28;20464;-83
2022/05/07 11:04:04;;;;;;;7.47;6.57;;;;;;;;;;5044901;28;20372;-83
2022/05/07 11:06:31;;;;;;;8.50;5.68;;;;;;;;;;5026739;28;20380;-84
2022/05/07 11:08:57;;;;;;;9.70;6.35;;;;;;;;;;5050059;28;20890;-82
2022/05/07 11:11:24;;;;;;;9.40;6.97;;;;;;;;;;5027368;28;20387;-82
2022/05/07 11:13:51;;;;;;;12.93;6.90;;;;;;;;;;5025559;28;20956;-84
2022/05/07 11:16:19;;;;;;;9.90;5.93;;;;;;;;;;5039804;28;20466;-83
2022/05/07 11:18:51;;;;;;;9.18;6.63;;;;;;;;;;5042402;28;20443;-83
2022/05/07 11:21:21;;;;;;;9.25;6.38;;;;;;;;;;5039315;28;20378;-80
2022/05/07 11:23:54;;;;;;;6.82;5.25;;;;;;;;;;5043824;28;20374;-84
2022/05/07 11:26:20;;;;;;;7.15;6.15;;;;;;;;;;5040158;28;20915;-82
2022/05/07 11:28:46;;;;;;;7.95;5.82;;;;;;;;;;5044423;28;20378;-83
2022/05/07 11:31:15;;;;;;;9.23;6.88;;;;;;;;;;5040113;28;20366;-82
2022/05/07 11:33:41;;;;;;;8.50;6.90;;;;;;;;;;5036618;28;20864;-84
2022/05/07 11:36:08;;;;;;;9.93;6.13;;;;;;;;;;5035524;28;20412;-82
2022/05/07 11:38:34;;;;;;;8.10;6.27;;;;;;;;;;5016908;28;20449;-83
2022/05/07 11:41:19;;;;;;;7.95;6.30;;;;;;;;;;5017524;28;20859;-86
2022/05/07 11:46:34;;;;;;;8.05;6.07;;;;;;;;;;5043041;28;20888;-82
2022/05/07 11:49:06;;;;;;;7.85;6.28;;;;;;;;;;5044741;28;20471;-83
2022/05/07 11:51:32;;;;;;;11.45;6.50;;;;;;;;;;5046512;28;20384;-82
2022/05/07 11:54:08;;;;;;;7.47;6.20;;;;;;;;;;5029923;28;20440;-81
2022/05/07 11:56:44;;;;;;;10.07;6.68;;;;;;;;;;5046627;28;20421;-84
2022/05/07 11:59:10;;;;;;;8.10;5.80;;;;;;;;;;5025902;28;20769;-82
2022/05/07 12:01:36;;;;;;;7.47;5.70;;;;;;;;;;5041526;28;20367;-83
2022/05/07 12:04:09;;;;;;;9.57;6.03;;;;;;;;;;5029487;28;20748;-82
2022/05/07 12:06:35;;;;;;;8.57;5.03;;;;;;;;;;5046170;28;20367;-82
2022/05/07 12:09:15;;;;;;;7.17;5.03;;;;;;;;;;5028569;28;20391;-83
2022/05/07 12:11:45;;;;;;;8.43;4.63;;;;;;;;;;5028168;28;20429;-82
2022/05/07 12:14:11;;;;;;;8.02;4.28;;;;;;;;;;5026738;28;20368;-83
2022/05/07 12:19:28;;;;;;;6.75;3.55;;;;;;;;;;5040154;28;20388;-83
2022/05/07 12:30:09;;;;;;;6.05;3.90;;;;;;;;;;5045075;28;20358;-84
2022/05/07 12:32:35;;;;;;;8.90;5.30;;;;;;;;;;5045092;28;20395;-85
2022/05/07 12:35:01;;;;;;;7.67;6.10;;;;;;;;;;5031261;28;20411;-85
2022/05/07 12:37:27;;;;;;;6.97;4.78;;;;;;;;;;5022713;28;20381;-83
2022/05/07 12:39:53;;;;;;;6.38;4.90;;;;;;;;;;5038023;28;20409;-82
2022/05/07 12:42:19;;;;;;;6.70;4.80;;;;;;;;;;5038225;28;20848;-84
2022/05/07 12:44:45;;;;;;;6.72;4.10;;;;;;;;;;5037325;28;20376;-83
2022/05/07 12:47:11;;;;;;;4.95;4.07;;;;;;;;;;5037038;28;20375;-84
2022/05/07 12:49:38;;;;;;;6.10;4.00;;;;;;;;;;5042275;28;20402;-80
2022/05/07 12:52:09;;;;;;;6.63;4.15;;;;;;;;;;5030130;28;20372;-81
2022/05/07 12:54:36;;;;;;;7.78;4.40;;;;;;;;;;5026995;28;20761;-84
2022/05/07 12:57:04;;;;;;;7.25;4.20;;;;;;;;;;5025398;28;20429;-80
2022/05/07 12:59:31;;;;;;;6.00;3.95;;;;;;;;;;5037345;28;20490;-83
2022/05/07 13:01:57;;;;;;;7.13;4.28;;;;;;;;;;5038173;28;20409;-87
2022/05/07 13:04:24;;;;;;;5.28;3.47;;;;;;;;;;5037950;28;20366;-82
2022/05/07 13:06:53;;;;;;;6.13;3.58;;;;;;;;;;5041131;28;20376;-81
2022/05/07 13:09:20;;;;;;;3.63;2.75;;;;;;;;;;5037151;28;20435;-85
2022/05/07 13:11:46;;;;;;;3.08;2.33;;;;;;;;;;5019068;28;20369;-85
2022/05/07 13:14:12;;;;;;;5.80;3.38;;;;;;;;;;5019268;28;20525;-82
2022/05/07 13:16:38;;;;;;;5.10;3.70;;;;;;;;;;5044378;28;20384;-82
2022/05/07 13:19:04;;;;;;;6.10;3.77;;;;;;;;;;5026850;28;20512;-83
2022/05/07 13:21:33;;;;;;;9.32;4.72;;;;;;;;;;5037150;28;20369;-83
2022/05/07 13:23:58;;;;;;;9.23;5.03;;;23.10;88.80;;;;;;5044932;28;20374;-84
2022/05/07 13:26:24;;;;;;;7.13;4.20;;;22.80;89.40;;;;;;5035473;28;20832;-82
2022/05/07 13:28:49;;;;;;;7.72;3.83;;;22.70;91.10;;;;;;5025948;28;20375;-83
2022/05/07 13:31:15;;;;;;;5.70;4.10;;;22.50;91.10;;;;;;5047917;28;20393;-84
2022/05/07 13:33:42;;;;;;;5.72;3.67;;;22.40;90.80;;;;;;5038339;28;20377;-83
2022/05/07 13:36:07;;;;;;;7.75;4.05;;;22.30;91.40;;;;;;5015890;28;20397;-82
2022/05/07 13:38:33;;;;;;;8.20;4.00;;;22.50;91.60;;;;;;5028356;28;20409;-85
2022/05/07 13:40:59;;;;;;;6.25;4.22;;;22.50;91.80;;;;;;5040215;28;20386;-82
2022/05/07 13:43:25;;;;;;;7.38;4.35;;;22.50;92.50;;;;;;5047849;28;20400;-85
2022/05/07 13:45:51;;;;;;;6.00;3.80;;;22.50;91.20;;;;;;5040046;28;20384;-83
2022/05/07 13:48:18;;;;;;;6.45;3.67;;;22.40;91.20;;;;;;5023900;28;20822;-84
2022/05/07 13:50:44;;;;;;;4.95;3.85;;;22.40;90.60;;;;;;5041716;28;20408;-82
2022/05/07 13:53:10;;;;;;;6.28;4.25;;;22.30;90.30;;;;;;5041248;28;20386;-83
2022/05/07 13:55:36;;;;;;;5.73;3.60;;;22.30;91.30;;;;;;5022620;28;20479;-83
2022/05/07 13:58:03;;;;;;;4.10;3.10;;;22.00;90.90;;;;;;5018306;28;20425;-84
2022/05/07 14:00:29;;;;;;;5.50;2.90;;;22.20;92.80;;;;;;5040492;28;20892;-85
2022/05/07 14:02:55;;;;;;;5.50;2.95;;;22.50;91.80;;;;;;5037768;28;20858;-86
2022/05/07 14:05:21;;;;;;;4.85;3.10;;;;;;;;;;5037484;28;20456;-82
2022/05/07 14:07:47;;;;;;;4.30;2.63;;;;;;;;;;5035712;28;20379;-82
2022/05/07 14:10:12;;;;;;;2.70;2.38;;;22.70;86.80;;;;;;5042568;28;20393;-82
2022/05/07 14:12:38;;;;;;;4.68;2.17;;;22.60;89.40;;;;;;5020757;28;20381;-80
2022/05/07 14:15:04;;;;;;;2.70;2.00;;;22.60;87.60;;;;;;5039462;28;20400;-83
2022/05/07 14:17:31;;;;;;;2.35;1.75;;;22.40;86.90;;;;;;5034356;28;20392;-82
2022/05/07 14:19:58;;;;;;;4.97;2.13;;;22.30;89.10;;;;;;5036552;28;20401;-82
2022/05/07 14:22:24;;;;;;;3.42;2.20;;;22.50;86.70;;;;;;5034265;28;20431;-82
2022/05/07 14:24:54;;;;;;;3.42;1.85;;;22.80;86.00;;;;;;5037086;28;20732;-83
2022/05/07 14:27:20;;;;;;;2.72;1.90;;;22.90;87.70;;;;;;5020738;28;20373;-83
2022/05/07 14:29:46;;;;;;;3.10;1.80;;;23.00;88.90;;;;;;5022448;28;20779;-83
2022/05/07 14:32:11;;;;;;;2.70;1.70;;;23.00;86.60;;;;;;5037935;28;20447;-82
2022/05/07 14:34:37;;;;;;;3.47;1.73;;;23.00;85.30;;;;;;5035900;28;20419;-82
2022/05/07 14:37:04;;;;;;;3.63;1.83;;;22.90;85.30;;;;;;5038756;28;20424;-82
2022/05/07 14:39:29;;;;;;;3.53;1.73;;;22.80;86.30;;;;;;5020299;28;20389;-82
2022/05/07 14:41:55;;;;;;;2.47;1.60;;;22.70;86.30;;;;;;5037406;28;20448;-84
2022/05/07 14:44:21;;;;;;;1.70;1.60;;;22.50;91.70;;;;;;5038516;28;20456;-83
2022/05/07 14:46:47;;;;;;;3.30;1.85;;;22.40;84.60;;;;;;5039077;28;20870;-83
2022/05/07 14:49:13;;;;;;;2.70;1.63;;;22.50;84.40;;;;;;5038058;28;20806;-82
2022/05/07 14:51:41;;;;;;;2.27;1.50;;;;;;;;;;5037932;28;20388;-82
2022/05/07 14:54:07;;;;;;;3.63;1.85;;;;;;;;;;5019808;28;20533;-82
2022/05/07 14:56:34;;;;;;;2.67;1.55;;;22.30;99.90;;;;;;5019283;28;20483;-83
2022/05/07 14:59:01;;;;;;;3.90;1.50;;;;;;;;;;5019295;28;20396;-81
2022/05/07 15:01:29;;;;;;;2.85;1.70;;;;;;;;;;5037224;28;20368;-83
2022/05/07 15:03:56;;;;;;;3.60;1.70;;;;;;;;;;5039107;28;20368;-82
2022/05/07 15:06:22;;;;;;;2.35;1.60;;;22.50;99.90;;;;;;5021098;28;20468;-81
2022/05/07 15:11:31;;;;;;;4.32;1.67;;;22.60;99.90;;;;;;5036766;28;20372;-81
2022/05/07 15:14:02;;;;;;;7.00;2.07;;;;;;;;;;5037582;28;20376;-82
2022/05/07 15:16:27;;;;;;;3.73;1.70;;;22.60;86.30;;;;;;5020993;28;20373;-84